Time;durP1;ratioP1;P1;durP2;ratioP2;P2;SDS_P1;SDS_P2;PMS_P1;PMS_P2;Temp;Humidity;BMP_temperature;BMP_pressure;BME280_temperature;BME280_humidity;BME280_pressure;Samples;Min_cycle;Max_cycle;Signal;HPM_P1;HPM_P2
2022/10/05 00:02:22;;;;;;;8.30;5.25;;;9.50;99.90;;;8.96;100.00;97778.50;5000787;28;20136;-49
2022/10/05 00:04:52;;;;;;;6.57;4.95;;;9.50;99.90;;;9.00;100.00;97779.28;4997420;28;20136;-49
2022/10/05 00:07:19;;;;;;;5.70;4.55;;;9.50;99.90;;;9.03;100.00;97771.34;5001780;28;20036;-50
2022/10/05 00:09:58;;;;;;;8.27;5.50;;;9.50;99.90;;;9.04;100.00;97777.47;4993085;28;20037;-52
2022/10/05 00:12:27;;;;;;;6.05;4.70;;;9.50;99.90;;;9.03;100.00;97781.88;5008487;28;20037;-49
2022/10/05 00:14:59;;;;;;;7.60;4.93;;;9.60;99.90;;;9.01;100.00;97783.66;4988931;28;23209;-50
2022/10/05 00:17:28;;;;;;;5.63;4.50;;;9.50;99.90;;;8.98;100.00;97781.97;4992479;28;21713;-50
2022/10/05 00:19:54;;;;;;;7.65;5.07;;;9.50;99.90;;;8.96;100.00;97769.75;4998354;28;21898;-49
2022/10/05 00:22:26;;;;;;;7.28;5.25;;;9.50;99.90;;;8.97;100.00;97772.34;5004350;28;20406;-49
2022/10/05 00:25:00;;;;;;;6.30;4.68;;;9.50;99.90;;;8.95;100.00;97773.28;4981989;28;20383;-48
2022/10/05 00:27:32;;;;;;;7.82;5.45;;;9.50;99.90;;;8.92;100.00;97774.22;5003223;28;20626;-50
2022/10/05 00:30:06;;;;;;;6.45;4.82;;;9.40;99.90;;;8.86;100.00;97763.00;5003310;28;20702;-50
2022/10/05 00:32:31;;;;;;;6.18;4.78;;;9.40;99.90;;;8.90;100.00;97767.25;4987284;28;20068;-49
2022/10/05 00:34:57;;;;;;;8.68;5.10;;;9.40;99.90;;;8.87;100.00;97764.72;5005114;28;20533;-50
2022/10/05 00:37:23;;;;;;;5.93;4.38;;;9.40;99.90;;;8.86;100.00;97761.22;4992996;28;20040;-51
2022/10/05 00:39:48;;;;;;;6.70;5.18;;;9.30;99.90;;;8.83;100.00;97761.31;4982966;28;20039;-50
2022/10/05 00:42:41;;;;;;;8.07;4.90;;;9.40;99.90;;;8.80;100.00;97764.00;5001884;28;20099;-49
2022/10/05 00:45:20;;;;;;;9.02;4.88;;;9.30;99.90;;;8.63;100.00;97745.13;4986437;28;20498;-48
2022/10/05 00:48:01;;;;;;;5.82;4.35;;;9.30;99.90;;;8.74;100.00;97770.28;4987168;28;20048;-48
2022/10/05 00:51:09;;;;;;;6.40;4.63;;;9.30;99.90;;;8.72;100.00;97760.69;5001601;28;20112;-51
2022/10/05 00:53:46;;;;;;;8.30;4.80;;;9.20;99.90;;;8.68;100.00;97759.03;4982311;28;20080;-50
2022/10/05 00:56:31;;;;;;;6.65;5.10;;;9.20;99.90;;;8.63;100.00;97766.16;4991384;28;20033;-51
2022/10/05 00:59:33;;;;;;;6.78;5.10;;;9.10;99.90;;;8.59;100.00;97758.34;5002195;28;21608;-51
2022/10/05 01:02:12;;;;;;;6.90;5.15;;;9.10;99.90;;;8.57;100.00;97762.78;5009515;28;20065;-50
2022/10/05 01:05:21;;;;;;;8.60;4.85;;;9.10;99.90;;;8.53;100.00;97760.25;4998965;28;20054;-54
2022/10/05 01:08:26;;;;;;;6.32;4.93;;;9.10;99.90;;;8.49;100.00;97753.31;5003426;28;20030;-53
2022/10/05 01:11:16;;;;;;;8.02;5.28;;;9.00;99.90;;;8.47;100.00;97763.00;5000264;28;20037;-53
2022/10/05 01:14:35;;;;;;;8.82;5.40;;;9.00;99.90;;;8.45;100.00;97763.03;4980977;28;20602;-52
2022/10/05 01:17:19;;;;;;;6.93;4.93;;;9.00;99.90;;;8.43;100.00;97759.59;4982961;28;20662;-51
2022/10/05 01:20:23;;;;;;;7.30;5.13;;;9.00;99.90;;;8.39;100.00;97764.03;4967072;28;20069;-52
2022/10/05 01:23:26;;;;;;;6.22;5.07;;;8.90;99.90;;;8.37;100.00;97763.19;4998527;28;20029;-49
2022/10/05 01:26:25;;;;;;;8.25;5.88;;;8.90;99.90;;;8.38;100.00;97756.16;4995607;28;20041;-55
2022/10/05 01:29:14;;;;;;;7.45;5.68;;;8.90;99.90;;;8.37;100.00;97751.81;5000847;28;20091;-51
2022/10/05 01:31:59;;;;;;;7.13;5.25;;;8.90;99.90;;;8.35;100.00;97753.63;4978837;28;20595;-53
2022/10/05 01:34:40;;;;;;;7.63;5.53;;;8.90;99.90;;;8.32;100.00;97746.66;4972226;28;20053;-48
2022/10/05 01:37:45;;;;;;;8.05;5.25;;;8.90;99.90;;;8.31;100.00;97757.19;4989313;28;20041;-50
2022/10/05 01:40:47;;;;;;;7.55;5.57;;;8.80;99.90;;;8.28;100.00;97744.16;4997064;28;20038;-56
2022/10/05 01:43:36;;;;;;;7.95;5.88;;;8.80;99.90;;;8.25;100.00;97747.69;4966230;28;22369;-49
2022/10/05 01:46:35;;;;;;;7.95;5.60;;;8.80;99.90;;;8.28;100.00;97749.41;4983399;28;20076;-48
2022/10/05 01:49:39;;;;;;;9.15;6.38;;;8.80;99.90;;;8.30;100.00;97744.97;4980100;28;20034;-54
2022/10/05 01:52:31;;;;;;;7.95;6.13;;;8.80;99.90;;;8.28;100.00;97739.75;4970917;28;20072;-48
2022/10/05 01:55:40;;;;;;;9.20;6.47;;;8.80;99.90;;;8.28;100.00;97734.50;4994775;28;20041;-49
2022/10/05 01:58:40;;;;;;;8.20;6.03;;;8.80;99.90;;;8.26;100.00;97730.19;4986069;28;20037;-49
2022/10/05 02:01:26;;;;;;;10.20;6.50;;;8.80;99.90;;;8.26;100.00;97728.41;4983711;28;20526;-50
2022/10/05 02:04:03;;;;;;;13.23;7.18;;;8.80;99.90;;;8.28;100.00;97723.97;4983237;28;20256;-48
2022/10/05 02:06:47;;;;;;;7.93;6.10;;;8.80;99.90;;;8.28;100.00;97721.34;4986554;28;20267;-49
2022/10/05 02:09:25;;;;;;;7.13;5.85;;;8.80;99.90;;;8.30;100.00;97721.31;4998004;28;20029;-50
2022/10/05 02:12:14;;;;;;;6.80;5.80;;;8.80;99.90;;;8.29;100.00;97730.09;4993479;28;20040;-50
2022/10/05 02:14:43;;;;;;;8.25;6.65;;;8.80;99.90;;;8.28;100.00;97726.63;4987222;28;20033;-48
2022/10/05 02:17:18;;;;;;;7.82;6.43;;;8.80;99.90;;;8.26;100.00;97730.19;4986104;28;20520;-52
2022/10/05 02:19:50;;;;;;;8.05;6.57;;;8.80;99.90;;;8.25;100.00;97718.78;5002934;28;20124;-48
2022/10/05 02:22:27;;;;;;;9.75;6.50;;;8.80;99.90;;;8.25;100.00;97717.94;4987316;28;20048;-50
2022/10/05 02:25:01;;;;;;;11.77;7.00;;;8.80;99.90;;;8.21;100.00;97718.00;4982116;28;20044;-50
2022/10/05 02:27:32;;;;;;;8.95;6.47;;;8.80;99.90;;;8.21;100.00;97714.50;4981056;28;20044;-48
2022/10/05 02:30:05;;;;;;;9.13;6.55;;;8.80;99.90;;;8.19;100.00;97711.91;4987505;28;20044;-48
2022/10/05 02:33:03;;;;;;;7.63;6.28;;;8.80;99.90;;;8.16;100.00;97709.34;4996750;28;20039;-50
2022/10/05 02:35:29;;;;;;;7.82;6.10;;;8.80;99.90;;;8.18;100.00;97712.84;5001954;28;20049;-48
2022/10/05 02:38:28;;;;;;;8.77;6.25;;;8.80;99.90;;;8.16;100.00;97709.34;5005567;28;20040;-48
2022/10/05 02:41:06;;;;;;;7.97;6.47;;;8.80;99.90;;;8.14;100.00;97695.38;4999330;28;22289;-49
2022/10/05 02:43:47;;;;;;;11.35;6.75;;;8.70;99.90;;;8.13;100.00;97709.44;4998118;28;20056;-48
2022/10/05 02:47:04;;;;;;;7.95;6.68;;;8.70;99.90;;;8.12;100.00;97693.72;5003102;28;20464;-50
2022/10/05 02:49:59;;;;;;;10.00;6.47;;;8.70;99.90;;;8.11;100.00;97705.09;4913289;28;20115;-48
2022/10/05 02:52:31;;;;;;;9.57;6.40;;;8.70;99.90;;;8.11;100.00;97716.50;4903962;28;20418;-47
2022/10/05 02:54:57;;;;;;;8.27;6.50;;;8.70;99.90;;;8.11;100.00;97707.72;4964894;28;21705;-48
2022/10/05 02:57:36;;;;;;;8.73;6.85;;;8.70;99.90;;;8.11;100.00;97713.88;5000344;28;20128;-47
2022/10/05 03:00:09;;;;;;;9.73;6.18;;;8.70;99.90;;;8.10;100.00;97712.13;4984077;28;20513;-52
2022/10/05 03:02:48;;;;;;;10.02;6.90;;;8.70;99.90;;;8.13;100.00;97714.69;4988042;28;20096;-49
2022/10/05 03:05:29;;;;;;;9.48;6.50;;;8.70;99.90;;;8.16;100.00;97719.84;5005313;28;20025;-49
2022/10/05 03:08:17;;;;;;;9.32;7.20;;;8.70;99.90;;;8.27;100.00;97734.53;4981587;28;20041;-48
2022/10/05 03:11:10;;;;;;;13.90;7.95;;;8.80;99.90;;;8.29;100.00;97709.06;4983163;23;20046;-40
2022/10/05 03:14:17;;;;;;;8.10;6.50;;;8.90;99.90;;;8.44;100.00;97721.91;4960040;28;20056;-40
2022/10/05 03:17:02;;;;;;;9.35;6.32;;;9.00;99.90;;;8.48;100.00;97728.81;4948478;28;20163;-40
2022/10/05 03:20:01;;;;;;;9.98;6.95;;;9.00;99.90;;;8.52;100.00;97726.97;4966879;28;20033;-41
2022/10/05 03:22:48;;;;;;;8.98;6.10;;;9.00;99.90;;;8.55;100.00;97719.88;4972881;28;20395;-40
2022/10/05 03:25:35;;;;;;;6.85;5.88;;;9.10;99.90;;;8.55;100.00;97712.00;4972326;28;20148;-41
2022/10/05 03:28:19;;;;;;;10.00;6.70;;;9.10;99.90;;;8.57;100.00;97712.81;4992436;28;20030;-40
2022/10/05 03:30:59;;;;;;;9.10;6.43;;;9.10;99.90;;;8.58;100.00;97709.31;4976192;28;20038;-41
2022/10/05 03:33:55;;;;;;;8.80;6.63;;;9.10;99.90;;;8.59;100.00;97700.50;4980947;28;20034;-40
2022/10/05 03:36:48;;;;;;;7.45;5.50;;;9.10;99.90;;;8.54;100.00;97684.00;4984965;28;20026;-41
2022/10/05 03:39:36;;;;;;;8.00;6.20;;;9.10;99.90;;;8.55;100.00;97695.38;4994452;28;20034;-40
2022/10/05 03:42:15;;;;;;;7.90;6.38;;;9.10;99.90;;;8.51;100.00;97686.69;4980527;28;20041;-40
2022/10/05 03:44:56;;;;;;;8.60;5.57;;;9.10;99.90;;;8.49;100.00;97690.25;4988049;28;20081;-40
2022/10/05 03:47:51;;;;;;;7.88;6.55;;;9.00;99.90;;;8.45;100.00;97684.19;4983033;28;20027;-42
2022/10/05 03:50:43;;;;;;;8.25;6.15;;;9.00;99.90;;;8.29;100.00;97653.91;4987135;28;20136;-40
2022/10/05 03:53:24;;;;;;;9.32;6.45;;;9.00;99.90;;;8.43;100.00;97683.38;4973950;28;20039;-41
2022/10/05 03:55:58;;;;;;;8.00;6.65;;;8.90;99.90;;;8.39;100.00;97677.28;4980814;28;20069;-40
2022/10/05 03:58:53;;;;;;;9.10;6.95;;;9.00;99.90;;;8.37;100.00;97676.47;4979793;28;20034;-41
2022/10/05 04:01:26;;;;;;;11.15;6.90;;;8.90;99.90;;;8.33;100.00;97668.72;4977492;28;20365;-39
2022/10/05 04:03:57;;;;;;;8.70;6.78;;;8.90;99.90;;;8.33;100.00;97672.19;4973995;28;20041;-41
2022/10/05 04:06:31;;;;;;;12.07;7.18;;;8.90;99.90;;;8.35;100.00;97666.91;4982571;28;20036;-41
2022/10/05 04:09:11;;;;;;;7.60;6.80;;;8.90;99.90;;;8.35;100.00;97670.38;4976862;28;20085;-39
2022/10/05 04:11:47;;;;;;;9.38;7.20;;;8.90;99.90;;;8.37;100.00;97667.72;4944604;28;20034;-41
2022/10/05 04:14:19;;;;;;;9.25;7.20;;;8.90;99.90;;;8.36;100.00;97666.00;4971113;28;20116;-41
2022/10/05 04:16:51;;;;;;;11.32;7.68;;;8.90;99.90;;;8.37;100.00;97675.59;4970780;28;20732;-39
2022/10/05 04:19:21;;;;;;;10.20;6.70;;;9.00;99.90;;;8.37;100.00;97670.34;4968966;28;20132;-39
2022/10/05 04:21:54;;;;;;;8.25;6.90;;;8.90;99.90;;;8.34;100.00;97678.31;4972578;28;20037;-40
2022/10/05 04:24:32;;;;;;;7.35;6.32;;;8.90;99.90;;;8.28;100.00;97671.44;4972692;28;20381;-39
2022/10/05 04:27:32;;;;;;;9.40;6.80;;;8.90;99.90;;;8.25;100.00;97668.00;4968775;28;20064;-40
2022/10/05 04:30:04;;;;;;;8.98;6.78;;;8.80;99.90;;;8.25;100.00;97671.50;4971482;28;20225;-40
2022/10/05 04:32:52;;;;;;;9.63;6.53;;;8.80;99.90;;;8.19;100.00;97656.75;4968739;28;20026;-40
2022/10/05 04:35:52;;;;;;;9.52;6.18;;;8.70;99.90;;;8.18;100.00;97657.66;4974080;28;20061;-39
2022/10/05 04:38:42;;;;;;;9.73;6.50;;;8.70;99.90;;;8.17;100.00;97661.16;4983697;28;20045;-39
2022/10/05 04:41:36;;;;;;;10.20;7.38;;;8.70;99.90;;;8.01;100.00;97637.00;4983756;28;20116;-39
2022/10/05 04:44:22;;;;;;;9.20;6.60;;;8.70;99.90;;;8.17;100.00;97670.81;4980655;28;20045;-39
2022/10/05 04:47:10;;;;;;;9.45;6.65;;;8.70;99.90;;;8.16;100.00;97669.09;4973095;28;20117;-40
2022/10/05 04:49:58;;;;;;;8.30;6.28;;;8.70;99.90;;;7.96;100.00;97635.41;4977050;28;20782;-40
2022/10/05 04:52:46;;;;;;;9.00;6.60;;;8.70;99.90;;;8.12;100.00;97673.53;4972863;28;20061;-40
2022/10/05 04:55:38;;;;;;;10.02;7.25;;;8.60;99.90;;;8.11;100.00;97669.22;4967230;28;21654;-40
2022/10/05 04:58:34;;;;;;;7.70;6.60;;;8.70;99.90;;;8.10;100.00;97675.34;4974643;28;20125;-39
2022/10/05 05:01:33;;;;;;;9.48;7.15;;;8.60;99.90;;;8.08;100.00;97681.56;4965975;28;20042;-39
2022/10/05 05:04:45;;;;;;;9.40;6.65;;;8.60;99.90;;;8.07;100.00;97687.69;4984991;28;20100;-40
2022/10/05 05:07:52;;;;;;;10.75;7.93;;;8.60;99.90;;;8.03;100.00;97687.75;4984785;28;21388;-38
2022/10/05 05:10:42;;;;;;;9.30;7.38;;;8.60;99.90;;;8.08;100.00;97694.69;4990298;28;20029;-38
2022/10/05 05:13:49;;;;;;;10.13;7.57;;;8.60;99.90;;;8.06;100.00;97699.97;4992564;28;20030;-38
2022/10/05 05:16:36;;;;;;;8.45;6.72;;;8.60;99.90;;;8.11;100.00;97697.22;5000236;28;20041;-39
2022/10/05 05:19:21;;;;;;;9.65;7.55;;;8.70;99.90;;;8.10;100.00;97704.25;4984735;28;20029;-38
2022/10/05 05:22:02;;;;;;;9.40;7.22;;;8.60;99.90;;;8.12;100.00;97706.84;4986369;28;20038;-38
2022/10/05 05:24:52;;;;;;;8.38;7.25;;;8.60;99.90;;;8.15;100.00;97705.00;4982834;28;20476;-38
2022/10/05 05:27:42;;;;;;;9.27;7.38;;;8.70;99.90;;;8.13;100.00;97703.28;4998773;28;20055;-38
2022/10/05 05:30:22;;;;;;;12.02;6.90;;;8.70;99.90;;;8.14;100.00;97702.41;4990113;28;20484;-38
2022/10/05 05:33:18;;;;;;;10.60;7.53;;;8.70;99.90;;;8.14;100.00;97710.28;4983589;28;20151;-39
2022/10/05 05:36:14;;;;;;;11.85;7.40;;;8.70;99.90;;;8.14;100.00;97708.53;4981612;28;20078;-39
2022/10/05 05:38:46;;;;;;;11.43;7.45;;;8.70;99.90;;;8.17;100.00;97715.50;4986756;28;20038;-38
2022/10/05 05:41:28;;;;;;;10.00;7.45;;;8.70;99.90;;;8.19;100.00;97717.16;4985908;28;20096;-38
2022/10/05 05:44:19;;;;;;;10.55;7.93;;;8.80;99.90;;;8.20;100.00;97726.78;4961170;28;20042;-38
2022/10/05 05:46:57;;;;;;;11.18;8.45;;;8.80;99.90;;;8.21;100.00;97723.25;4975965;28;21094;-38
2022/10/05 05:50:14;;;;;;;9.77;8.00;;;8.80;99.90;;;8.24;100.00;97722.34;4988277;28;21246;-39
2022/10/05 05:52:49;;;;;;;9.98;7.60;;;8.80;99.90;;;8.28;100.00;97723.13;4950348;28;20198;-39
2022/10/05 05:55:37;;;;;;;8.70;6.97;;;8.80;99.90;;;8.28;100.00;97728.38;4976962;28;20146;-39
2022/10/05 05:58:14;;;;;;;8.35;6.85;;;8.80;99.90;;;8.14;100.00;97710.28;4982156;28;20497;-40
2022/10/05 06:00:56;;;;;;;9.25;7.90;;;8.80;99.90;;;8.30;100.00;97729.22;4981849;28;20049;-40
2022/10/05 06:03:38;;;;;;;11.80;8.38;;;8.80;99.90;;;8.33;100.00;97735.25;4985877;28;20038;-41
2022/10/05 06:06:14;;;;;;;9.30;7.18;;;8.90;99.90;;;8.36;100.00;97734.31;4983393;28;20037;-41
2022/10/05 06:08:49;;;;;;;10.05;7.80;;;8.90;99.90;;;8.38;100.00;97740.41;4982102;28;20029;-42
2022/10/05 06:11:48;;;;;;;10.25;7.60;;;8.90;99.90;;;8.43;100.00;97743.81;4981373;28;20026;-41
2022/10/05 06:14:41;;;;;;;11.23;7.57;;;9.00;99.90;;;8.46;100.00;97743.75;4982366;28;20029;-42
2022/10/05 06:17:15;;;;;;;9.30;7.78;;;9.00;99.90;;;8.51;100.00;97749.78;4981979;28;20042;-41
2022/10/05 06:19:42;;;;;;;9.57;7.88;;;9.10;99.90;;;8.53;100.00;97755.88;4982496;28;20118;-41
2022/10/05 06:22:40;;;;;;;9.82;7.50;;;9.10;99.90;;;8.60;100.00;97762.72;4984043;28;20056;-41
2022/10/05 06:25:11;;;;;;;9.40;6.65;;;9.10;99.90;;;8.66;100.00;97769.59;4982017;28;20087;-42
2022/10/05 06:27:57;;;;;;;9.05;6.57;;;9.20;99.90;;;8.70;100.00;97767.75;4984425;28;20033;-41
2022/10/05 06:30:25;;;;;;;9.70;7.80;;;9.30;99.90;;;8.73;100.00;97767.69;4986874;28;20580;-41
2022/10/05 06:33:16;;;;;;;10.38;7.32;;;9.30;99.90;;;8.76;100.00;97775.50;4969395;28;20038;-42
2022/10/05 06:36:19;;;;;;;10.25;7.88;;;9.30;99.90;;;8.84;100.00;97770.91;4981372;28;20042;-42
2022/10/05 06:39:14;;;;;;;14.05;8.00;;;9.40;99.90;;;8.93;100.00;97781.19;4986460;28;20065;-42
2022/10/05 06:42:13;;;;;;;13.68;7.00;;;9.50;99.90;;;9.02;100.00;97780.13;4988082;28;20049;-41
2022/10/05 06:44:58;;;;;;;8.90;6.43;;;9.60;99.90;;;9.07;100.00;97777.38;4983936;28;20483;-42
2022/10/05 06:48:02;;;;;;;7.10;5.85;;;9.60;99.90;;;9.15;100.00;97784.19;4985366;28;20038;-42
2022/10/05 06:50:37;;;;;;;10.45;6.05;;;9.70;99.90;;;9.21;100.00;97780.53;4977170;28;20056;-41
2022/10/05 06:53:34;;;;;;;9.05;6.45;;;9.80;99.90;;;9.27;100.00;97782.16;4980116;28;20030;-42
2022/10/05 06:56:25;;;;;;;13.52;7.88;;;9.90;99.90;;;9.36;100.00;97784.53;4982167;28;20511;-42
2022/10/05 06:59:32;;;;;;;10.48;8.35;;;9.90;99.90;;;9.43;100.00;97785.25;4985031;28;20547;-41
2022/10/05 07:02:20;;;;;;;9.07;7.30;;;10.00;99.90;;;9.52;100.00;97785.00;4987745;28;20088;-41
2022/10/05 07:05:04;;;;;;;11.55;8.15;;;10.10;99.90;;;9.60;100.00;97782.16;4984587;28;20407;-42
2022/10/05 07:07:54;;;;;;;10.43;8.20;;;10.20;99.90;;;9.68;100.00;97790.72;4987470;28;20038;-41
2022/10/05 07:11:03;;;;;;;9.68;7.93;;;10.20;99.90;;;9.73;100.00;97789.69;4987841;28;20026;-43
2022/10/05 07:13:56;;;;;;;11.45;6.90;;;10.30;99.90;;;9.77;100.00;97790.47;4930462;28;20680;-41
2022/10/05 07:16:50;;;;;;;8.15;6.35;;;10.30;99.90;;;9.81;100.00;97792.09;4991495;28;20030;-41
2022/10/05 07:19:37;;;;;;;7.93;6.65;;;10.40;99.90;;;9.84;100.00;97791.19;4985710;28;20168;-42
2022/10/05 07:22:49;;;;;;;7.55;6.22;;;10.40;99.90;;;9.88;100.00;97805.97;4985735;28;20034;-41
2022/10/05 07:25:22;;;;;;;8.45;6.13;;;10.40;99.90;;;9.91;100.00;97795.38;4982574;28;20089;-42
2022/10/05 07:27:59;;;;;;;7.47;5.93;;;10.40;99.90;;;9.95;100.00;97797.00;4989446;28;20030;-41
2022/10/05 07:30:25;;;;;;;8.65;6.15;;;10.50;99.90;;;10.01;100.00;97799.44;4991018;28;20048;-44
2022/10/05 07:33:25;;;;;;;8.30;6.05;;;10.50;99.90;;;10.06;100.00;97796.69;4988706;28;20478;-42
2022/10/05 07:39:34;;;;;;;8.70;6.78;;;10.60;99.90;;;10.15;100.00;97801.69;4986949;28;20025;-41
2022/10/05 07:42:06;;;;;;;14.02;6.72;;;10.70;99.90;;;10.18;100.00;97801.63;4988014;28;20033;-42
2022/10/05 07:44:42;;;;;;;9.20;6.32;;;10.70;99.90;;;10.21;100.00;97798.91;4986871;28;21010;-41
2022/10/05 07:47:45;;;;;;;8.20;6.28;;;10.80;99.90;;;10.28;100.00;97812.75;4983052;28;20037;-44
2022/10/05 07:50:48;;;;;;;8.35;6.70;;;10.80;99.90;;;10.34;100.00;97809.97;4986135;28;20026;-42
2022/10/05 07:53:55;;;;;;;10.63;7.50;;;10.90;99.90;;;10.39;100.00;97815.09;4982469;28;20125;-43
2022/10/05 07:56:45;;;;;;;8.32;7.20;;;10.90;99.90;;;10.42;100.00;97815.00;4985443;28;20053;-41
2022/10/05 07:59:24;;;;;;;7.85;6.70;;;11.00;99.90;;;10.48;100.00;97820.09;4985860;28;20041;-42
2022/10/05 08:02:09;;;;;;;11.55;7.10;;;11.00;99.90;;;10.50;100.00;97819.16;4984050;28;20125;-42
2022/10/05 08:04:50;;;;;;;9.00;7.00;;;11.00;99.90;;;10.57;100.00;97822.47;4987437;28;20524;-42
2022/10/05 08:07:17;;;;;;;8.80;6.95;;;11.10;99.90;;;10.63;100.00;97821.44;4984420;28;20084;-42
2022/10/05 08:09:51;;;;;;;9.48;7.10;;;11.20;99.90;;;10.72;100.00;97829.06;4987564;28;20613;-42
2022/10/05 08:12:48;;;;;;;8.40;7.00;;;11.30;99.90;;;10.67;100.00;97799.31;4984960;28;20563;-41
2022/10/05 08:15:30;;;;;;;11.40;6.60;;;11.30;99.90;;;10.84;100.00;97826.03;4986150;28;20035;-42
2022/10/05 08:18:04;;;;;;;9.23;7.00;;;11.40;99.90;;;10.98;100.00;97827.38;5004185;28;20260;-43
2022/10/05 08:20:44;;;;;;;9.48;7.10;;;11.40;99.90;;;10.98;100.00;97801.88;4982420;28;20057;-42
2022/10/05 08:23:49;;;;;;;7.57;6.30;;;11.60;99.90;;;11.21;100.00;97827.50;4974492;28;20038;-41
2022/10/05 08:26:46;;;;;;;9.95;7.35;;;11.70;99.90;;;11.35;100.00;97820.91;4984823;28;20050;-41
2022/10/05 08:29:45;;;;;;;8.93;6.65;;;11.80;99.90;;;11.43;100.00;97817.09;4988316;28;20272;-41
2022/10/05 08:32:23;;;;;;;9.10;5.93;;;11.90;99.90;;;11.52;100.00;97821.22;4986454;28;20411;-45
2022/10/05 08:35:37;;;;;;;10.45;6.90;;;12.00;99.90;;;11.65;100.00;97819.00;4988383;28;20222;-47
2022/10/05 08:38:25;;;;;;;8.13;6.82;;;12.10;99.90;;;11.73;100.00;97808.16;4985201;28;20030;-47
2022/10/05 08:41:14;;;;;;;7.32;6.35;;;12.20;99.90;;;11.90;100.00;97820.75;4985024;28;20476;-43
2022/10/05 08:44:29;;;;;;;8.00;6.30;;;12.40;99.90;;;12.08;100.00;97809.59;4988201;28;20026;-43
2022/10/05 08:47:17;;;;;;;8.18;6.03;;;12.50;99.90;;;12.21;100.00;97802.06;4943965;28;20065;-42
2022/10/05 08:50:30;;;;;;;9.07;6.05;;;12.70;99.90;;;12.36;100.00;97808.56;4980380;28;20120;-42
2022/10/05 08:53:35;;;;;;;9.77;6.47;;;12.80;99.90;;;12.45;100.00;97810.00;4988605;28;20025;-44
2022/10/05 08:56:13;;;;;;;7.85;6.78;;;12.90;99.90;;;12.56;100.00;97813.09;4987417;28;20514;-45
2022/10/05 08:59:31;;;;;;;12.55;6.60;;;13.00;99.90;;;12.68;100.00;97809.13;4985281;28;20510;-47
2022/10/05 09:02:43;;;;;;;8.98;5.57;;;13.10;99.90;;;12.83;100.00;97805.00;4984362;28;20388;-46
2022/10/05 09:06:17;;;;;;;8.77;5.90;;;13.20;99.90;;;12.99;100.00;97800.81;4985207;28;20128;-45
2022/10/05 09:08:42;;;;;;;;;;;13.40;99.90;;;13.08;100.00;97800.47;4985388;28;20483;-44
2022/10/05 09:11:31;;;;;;;7.03;5.10;;;13.50;99.90;;;13.22;100.00;97801.66;5007405;23;19922;-39
2022/10/05 09:14:17;;;;;;;8.55;5.82;;;13.60;99.90;;;13.39;100.00;97801.00;4985833;28;20039;-40
2022/10/05 09:17:17;;;;;;;7.72;5.70;;;13.70;99.90;;;13.53;100.00;97804.81;4974112;28;20022;-39
2022/10/05 09:20:09;;;;;;;10.60;5.82;;;13.90;99.90;;;13.64;100.00;97800.81;4975057;28;20033;-40
2022/10/05 09:22:55;;;;;;;10.40;6.80;;;14.00;99.90;;;13.76;100.00;97800.28;4985596;28;20099;-40
2022/10/05 09:25:35;;;;;;;11.10;6.00;;;14.20;99.90;;;13.89;100.00;97801.50;4975388;28;20049;-39
2022/10/05 09:28:27;;;;;;;9.38;5.40;;;14.30;99.90;;;14.07;100.00;97796.31;4968199;28;20164;-39
2022/10/05 09:31:40;;;;;;;6.65;4.97;;;14.40;99.90;;;14.24;100.00;97790.22;4988850;28;20254;-39
2022/10/05 09:34:48;;;;;;;8.80;5.43;;;14.60;99.90;;;14.38;100.00;97790.47;4978085;28;20506;-40
2022/10/05 09:37:37;;;;;;;9.50;4.68;;;14.80;99.90;;;14.58;100.00;97788.72;4989242;28;20085;-39
2022/10/05 09:40:43;;;;;;;8.73;5.28;;;14.90;99.90;;;14.70;100.00;97788.13;4988815;28;20056;-39
2022/10/05 09:44:05;;;;;;;7.38;4.72;;;15.00;99.90;;;14.86;100.00;97785.63;4984267;28;20426;-39
2022/10/05 09:47:05;;;;;;;5.70;4.65;;;15.20;99.90;;;15.00;100.00;97785.81;4983271;28;20087;-39
2022/10/05 09:50:06;;;;;;;6.80;4.63;;;15.30;99.90;;;15.06;100.00;97780.19;4992716;28;20049;-39
2022/10/05 09:53:20;;;;;;;6.50;4.70;;;15.50;99.90;;;15.23;100.00;97784.66;4989213;28;20113;-39
2022/10/05 09:56:33;;;;;;;;;;;15.60;99.90;;;15.36;100.00;97784.91;4978426;28;20562;-40
2022/10/05 09:59:14;;;;;;;5.32;4.13;;;15.70;99.90;;;15.51;100.00;97774.47;4988387;28;19913;-40
2022/10/05 10:02:03;;;;;;;6.47;4.15;;;15.80;99.90;;;15.65;100.00;97771.94;4972498;28;20525;-40
2022/10/05 10:05:18;;;;;;;6.88;3.90;;;16.00;99.90;;;15.78;100.00;97764.22;4975362;28;20037;-40
2022/10/05 10:08:13;;;;;;;7.47;3.70;;;16.20;99.90;;;15.90;100.00;97752.06;4996262;28;20139;-40
2022/10/05 10:11:18;;;;;;;4.50;3.80;;;16.30;99.90;;;16.08;100.00;97752.88;4978266;28;20034;-42
2022/10/05 10:13:54;;;;;;;6.22;3.20;;;16.40;99.90;;;16.18;100.00;97751.47;4993130;28;20494;-40
2022/10/05 10:16:48;;;;;;;6.38;3.17;;;16.50;99.90;;;16.30;100.00;97745.47;4989666;28;20042;-40
2022/10/05 10:19:56;;;;;;;4.85;3.40;;;16.60;99.90;;;16.36;100.00;97744.28;4989561;28;20037;-41
2022/10/05 10:23:03;;;;;;;5.38;3.80;;;16.70;99.90;;;16.44;100.00;97741.19;4985783;28;20045;-41
2022/10/05 10:25:52;;;;;;;6.05;3.53;;;16.80;99.90;;;16.53;100.00;97746.03;4974168;28;20057;-40
2022/10/05 10:28:38;;;;;;;5.63;3.15;;;16.90;99.90;;;16.59;100.00;97738.53;4976617;28;20061;-40
2022/10/05 10:31:34;;;;;;;9.95;3.15;;;17.00;99.90;;;16.71;100.00;97742.31;4994139;28;20089;-41
2022/10/05 10:34:29;;;;;;;4.97;3.25;;;17.10;99.90;;;16.80;100.00;97736.47;4990825;28;20046;-42
2022/10/05 10:37:34;;;;;;;4.07;2.83;;;17.20;99.90;;;16.92;100.00;97731.41;4972337;28;20040;-41
2022/10/05 10:40:08;;;;;;;5.07;3.10;;;17.30;99.90;;;17.01;100.00;97730.88;4995777;28;20518;-40
2022/10/05 10:43:05;;;;;;;4.88;3.20;;;17.40;99.90;;;17.11;100.00;97736.53;4994902;28;20476;-41
2022/10/05 10:46:05;;;;;;;6.68;3.00;;;17.50;99.90;;;17.16;100.00;97727.34;4990262;28;20034;-40
2022/10/05 10:49:01;;;;;;;7.00;2.97;;;17.60;99.90;;;17.25;100.00;97723.28;4994642;28;20041;-41
2022/10/05 10:52:03;;;;;;;3.78;2.78;;;17.60;99.90;;;17.35;100.00;97727.13;4972781;28;20100;-41
2022/10/05 10:55:10;;;;;;;4.30;2.13;;;17.70;99.90;;;17.49;100.00;97725.44;4983147;28;20040;-41
2022/10/05 10:58:19;;;;;;;4.30;2.45;;;17.80;99.90;;;17.60;100.00;97717.63;4969957;28;20196;-42
2022/10/05 11:01:14;;;;;;;4.63;2.72;;;18.00;99.90;;;17.73;100.00;97715.97;4988858;28;20030;-41
2022/10/05 11:04:05;;;;;;;3.28;2.38;;;18.10;99.90;;;17.85;98.47;97714.38;4989295;28;20442;-41
2022/10/05 11:07:08;;;;;;;3.40;2.03;;;18.20;99.90;;;17.96;97.26;97708.38;4980204;28;20035;-42
2022/10/05 11:10:24;;;;;;;2.38;1.88;;;18.30;99.90;;;18.08;96.60;97704.94;4986865;28;20040;-41
2022/10/05 11:13:12;;;;;;;2.42;1.98;;;18.40;99.90;;;18.12;94.52;97705.59;4985624;28;20030;-41
2022/10/05 11:16:25;;;;;;;3.53;2.22;;;18.50;99.90;;;18.27;92.14;97703.81;4989643;28;20491;-41
2022/10/05 11:19:14;;;;;;;2.40;1.70;;;18.60;99.90;;;18.51;90.10;97701.34;4993120;28;20117;-42
2022/10/05 11:22:27;;;;;;;2.83;1.60;;;18.80;99.90;;;18.72;89.33;97691.09;4979453;28;20495;-41
2022/10/05 11:25:43;;;;;;;3.55;1.65;;;19.00;99.90;;;18.88;90.91;97694.50;4989131;28;20042;-41
2022/10/05 11:28:39;;;;;;;2.90;1.60;;;19.20;99.90;;;19.03;87.75;97683.75;4984100;28;20117;-42
2022/10/05 11:31:23;;;;;;;1.33;1.20;;;19.40;99.90;;;19.13;89.19;97684.00;4985684;28;20072;-41
2022/10/05 11:34:07;;;;;;;2.25;1.42;;;19.50;99.90;;;19.20;84.65;97688.84;4991276;28;20189;-41
2022/10/05 11:37:22;;;;;;;2.00;1.50;;;19.50;99.90;;;19.32;85.47;97681.78;4986573;28;20511;-42
2022/10/05 11:40:19;;;;;;;2.03;1.52;;;19.60;99.90;;;19.33;85.66;97674.66;4983593;28;20050;-41
2022/10/05 11:43:04;;;;;;;2.60;1.23;;;19.70;99.90;;;19.38;84.56;97681.38;4988474;28;20048;-41
2022/10/05 11:45:49;;;;;;;1.90;1.60;;;19.70;99.90;;;19.45;84.58;97677.34;4983390;28;20044;-41
2022/10/05 11:48:42;;;;;;;1.90;1.48;;;19.80;99.90;;;19.48;81.02;97673.56;4992491;28;20105;-41
2022/10/05 11:51:13;;;;;;;1.77;1.45;;;19.80;99.90;;;19.50;85.72;97676.16;4970341;28;20189;-41
2022/10/05 11:53:48;;;;;;;2.35;1.63;;;19.80;99.90;;;19.53;83.42;97682.16;4991884;28;20095;-41
2022/10/05 11:56:34;;;;;;;2.30;1.70;;;19.80;99.90;;;19.69;80.30;97670.41;4992264;28;20035;-41